Time;durP1;ratioP1;P1;durP2;ratioP2;P2;SDS_P1;SDS_P2;PMS_P1;PMS_P2;Temp;Humidity;BMP_temperature;BMP_pressure;BME280_temperature;BME280_humidity;BME280_pressure;Samples;Min_cycle;Max_cycle;Signal;HPM_P1;HPM_P2
2023/03/01 00:01:28;;;;;;;4.07;2.40;;;7.20;57.40;;;;;;5033874;28;20069;-80
2023/03/01 00:03:54;;;;;;;3.92;2.60;;;7.10;57.40;;;;;;5033548;28;20021;-80
2023/03/01 00:06:21;;;;;;;3.65;2.03;;;7.10;57.50;;;;;;5033222;28;20060;-80
2023/03/01 00:08:47;;;;;;;6.00;2.83;;;7.00;57.60;;;;;;5013966;28;20433;-80
2023/03/01 00:11:21;;;;;;;5.72;2.90;;;7.00;57.70;;;;;;5033607;28;20028;-81
2023/03/01 00:13:49;;;;;;;6.45;2.88;;;7.00;57.80;;;;;;5015822;28;20382;-80
2023/03/01 00:16:18;;;;;;;7.25;3.13;;;6.90;57.90;;;;;;5016326;28;20033;-80
2023/03/01 00:18:44;;;;;;;4.30;2.35;;;6.80;58.60;;;;;;5033580;28;20088;-80
2023/03/01 00:21:10;;;;;;;4.25;2.42;;;6.90;58.20;;;;;;5015823;28;20029;-80
2023/03/01 00:23:37;;;;;;;4.50;2.47;;;6.90;58.20;;;;;;4999507;28;20116;-81
2023/03/01 00:26:06;;;;;;;3.75;2.03;;;6.90;58.00;;;;;;5033022;28;20037;-81
2023/03/01 00:28:32;;;;;;;4.22;2.33;;;6.90;58.00;;;;;;5033412;28;20041;-80
2023/03/01 00:31:06;;;;;;;4.80;2.63;;;6.90;58.00;;;;;;4999403;28;20025;-80
2023/03/01 00:33:32;;;;;;;4.13;2.40;;;7.00;58.00;;;;;;5015768;28;20048;-80
2023/03/01 00:36:01;;;;;;;3.55;2.00;;;7.00;58.00;;;;;;5015578;28;20025;-80
2023/03/01 00:38:27;;;;;;;4.00;2.47;;;7.00;58.10;;;;;;5015229;28;20462;-80
2023/03/01 00:40:53;;;;;;;4.47;2.50;;;6.90;58.10;;;;;;5015735;28;20030;-80
2023/03/01 00:43:19;;;;;;;4.45;2.55;;;6.90;58.20;;;;;;5033023;28;20037;-80
2023/03/01 00:45:44;;;;;;;4.95;2.80;;;6.80;58.20;;;;;;4999187;28;20058;-80
2023/03/01 00:48:10;;;;;;;6.45;2.65;;;6.70;58.40;;;;;;5015499;28;20115;-80
2023/03/01 00:50:36;;;;;;;4.13;3.05;;;6.60;58.50;;;;;;5033904;28;20084;-80
2023/03/01 00:53:01;;;;;;;5.72;3.03;;;6.50;58.70;;;;;;4986754;28;20539;-80
2023/03/01 00:55:27;;;;;;;4.00;2.90;;;6.50;58.90;;;;;;4986941;28;20029;-80
2023/03/01 00:57:53;;;;;;;5.57;4.15;;;6.40;59.30;;;;;;5037212;28;20036;-80
2023/03/01 01:00:19;;;;;;;4.95;3.80;;;6.30;59.40;;;;;;5037077;28;20120;-80
2023/03/01 01:02:45;;;;;;;4.43;3.13;;;6.30;59.50;;;;;;5037162;28;20025;-80
2023/03/01 01:05:12;;;;;;;5.40;3.50;;;6.30;59.60;;;;;;5002762;28;20056;-80
2023/03/01 01:07:38;;;;;;;6.32;3.65;;;6.30;59.70;;;;;;5036685;28;20379;-80
2023/03/01 01:10:04;;;;;;;6.63;3.55;;;6.30;59.70;;;;;;5019026;28;20041;-81
2023/03/01 01:12:31;;;;;;;6.53;3.85;;;6.30;59.70;;;;;;5037005;28;20033;-80
2023/03/01 01:14:57;;;;;;;7.47;4.20;;;6.10;59.80;;;;;;5036947;28;20029;-80
2023/03/01 01:17:22;;;;;;;5.85;3.67;;;6.10;60.00;;;;;;5036594;28;20099;-80
2023/03/01 01:19:48;;;;;;;8.10;4.22;;;6.10;60.30;;;;;;5019418;28;20425;-80
2023/03/01 01:22:13;;;;;;;7.03;3.97;;;6.00;60.40;;;;;;4986669;28;20034;-80
2023/03/01 01:24:39;;;;;;;6.07;4.20;;;6.00;60.60;;;;;;4986410;28;20041;-80
2023/03/01 01:27:07;;;;;;;5.15;3.83;;;5.90;60.70;;;;;;5036488;28;20036;-81
2023/03/01 01:29:32;;;;;;;5.70;3.72;;;5.90;61.00;;;;;;5019479;28;20038;-80
2023/03/01 01:31:58;;;;;;;5.53;4.03;;;5.70;61.00;;;;;;5019189;28;20040;-80
2023/03/01 01:34:24;;;;;;;5.40;3.70;;;5.60;61.30;;;;;;5019055;28;20041;-80
2023/03/01 01:36:53;;;;;;;6.93;4.10;;;5.60;62.00;;;;;;5002565;28;20034;-80
2023/03/01 01:39:22;;;;;;;8.27;5.05;;;5.60;62.00;;;;;;5036034;28;20025;-80
2023/03/01 01:41:49;;;;;;;6.50;4.22;;;5.40;62.20;;;;;;5036458;28;20029;-81
2023/03/01 01:44:26;;;;;;;7.07;4.68;;;5.20;63.10;;;;;;5018907;28;20045;-80
2023/03/01 01:47:08;;;;;;;6.03;4.45;;;5.00;63.50;;;;;;5036329;28;20117;-80
2023/03/01 01:49:53;;;;;;;7.40;3.97;;;5.00;64.10;;;;;;5018226;28;20034;-80
2023/03/01 01:52:37;;;;;;;6.00;4.18;;;5.00;63.90;;;;;;5018535;28;20083;-80
2023/03/01 01:55:06;;;;;;;7.20;4.07;;;5.00;63.80;;;;;;5018509;28;20143;-80
2023/03/01 01:57:37;;;;;;;5.72;4.00;;;5.10;64.70;;;;;;5035911;28;20025;-80
2023/03/01 02:00:25;;;;;;;5.40;3.60;;;5.10;64.00;;;;;;5035832;28;20545;-80
2023/03/01 02:02:58;;;;;;;6.25;4.20;;;5.10;64.50;;;;;;5034439;28;20037;-80
2023/03/01 02:06:18;;;;;;;5.97;4.20;;;5.30;64.60;;;;;;5018014;28;20021;-80
2023/03/01 02:08:46;;;;;;;5.30;4.50;;;5.10;63.80;;;;;;5003936;28;20045;-80
2023/03/01 02:11:14;;;;;;;7.32;4.43;;;4.80;64.40;;;;;;5035558;28;20036;-80
2023/03/01 02:13:40;;;;;;;6.65;3.55;;;4.60;64.60;;;;;;5018010;28;20394;-80
2023/03/01 02:16:12;;;;;;;6.18;4.35;;;4.60;65.40;;;;;;5035407;28;20048;-80
2023/03/01 02:18:40;;;;;;;6.47;3.83;;;4.60;65.10;;;;;;5034950;28;20050;-80
2023/03/01 02:21:28;;;;;;;5.97;4.07;;;4.70;65.30;;;;;;5035174;28;20025;-80
2023/03/01 02:23:55;;;;;;;8.07;4.38;;;4.50;65.40;;;;;;5017501;28;20060;-80
2023/03/01 02:26:45;;;;;;;5.80;3.83;;;4.30;67.30;;;;;;5017096;28;20124;-80
2023/03/01 02:29:11;;;;;;;4.85;3.40;;;4.30;66.50;;;;;;5035325;28;20399;-80
2023/03/01 02:31:42;;;;;;;6.55;3.78;;;4.30;66.80;;;;;;5035365;28;20092;-80
2023/03/01 02:34:21;;;;;;;7.20;4.00;;;4.40;66.80;;;;;;5017231;28;20040;-79
2023/03/01 02:36:51;;;;;;;8.25;4.28;;;4.50;66.20;;;;;;5034990;28;20478;-80
2023/03/01 02:39:25;;;;;;;6.75;3.60;;;4.40;66.30;;;;;;5034036;28;20030;-80
2023/03/01 02:41:53;;;;;;;5.55;3.45;;;4.40;66.40;;;;;;5034921;28;20036;-80
2023/03/01 02:44:19;;;;;;;6.53;3.78;;;4.40;66.50;;;;;;5034854;28;20027;-80
2023/03/01 02:46:49;;;;;;;7.93;3.63;;;4.50;66.60;;;;;;5016802;28;20034;-80
2023/03/01 02:49:25;;;;;;;5.97;3.53;;;4.60;66.60;;;;;;5034643;28;20039;-79
2023/03/01 02:52:11;;;;;;;7.47;4.07;;;4.50;66.10;;;;;;5016870;28;20492;-80
2023/03/01 02:54:59;;;;;;;8.07;3.47;;;4.50;66.00;;;;;;5016291;28;20040;-79
2023/03/01 02:57:27;;;;;;;6.25;3.55;;;4.30;66.50;;;;;;5016928;28;20458;-80
2023/03/01 02:59:54;;;;;;;4.78;3.97;;;4.30;66.70;;;;;;5034528;28;20060;-80
2023/03/01 03:02:38;;;;;;;6.95;4.22;;;4.40;66.80;;;;;;5016983;28;20033;-80
2023/03/01 03:05:12;;;;;;;5.53;3.60;;;4.30;66.60;;;;;;5034332;28;20421;-80
2023/03/01 03:07:40;;;;;;;7.05;3.90;;;4.20;66.90;;;;;;5033934;28;20053;-80
2023/03/01 03:10:11;;;;;;;6.25;3.78;;;4.30;68.10;;;;;;5016161;28;20033;-80
2023/03/01 03:12:37;;;;;;;4.82;3.80;;;4.40;67.20;;;;;;5033680;28;20017;-80
2023/03/01 03:15:08;;;;;;;6.47;3.70;;;4.50;67.00;;;;;;5015937;28;20034;-80
2023/03/01 03:17:37;;;;;;;4.35;3.20;;;4.50;66.60;;;;;;5034028;28;20050;-80
2023/03/01 03:20:05;;;;;;;6.22;3.88;;;4.50;66.70;;;;;;5034108;28;20036;-80
2023/03/01 03:22:33;;;;;;;7.68;3.58;;;4.60;67.00;;;;;;5033816;28;20030;-80
2023/03/01 03:24:59;;;;;;;7.68;3.88;;;4.70;66.20;;;;;;5034058;28;20112;-80
2023/03/01 03:27:25;;;;;;;6.18;3.75;;;4.60;66.60;;;;;;5016640;28;20033;-80
2023/03/01 03:29:50;;;;;;;6.10;3.92;;;4.50;66.50;;;;;;4999707;28;20368;-80
2023/03/01 03:32:16;;;;;;;6.22;3.83;;;4.50;66.60;;;;;;5016304;28;20065;-80
2023/03/01 03:34:42;;;;;;;5.05;3.58;;;4.40;67.10;;;;;;4999618;28;20033;-80
2023/03/01 03:38:01;;;;;;;6.88;3.67;;;4.30;66.90;;;;;;5016126;28;20033;-80
2023/03/01 03:39:54;;;;;;;6.28;3.50;;;4.30;67.20;;;;;;5018402;28;20044;-80
2023/03/01 03:42:21;;;;;;;6.45;3.58;;;4.30;66.90;;;;;;5016251;28;20053;-79
2023/03/01 03:44:47;;;;;;;5.45;3.53;;;4.30;66.70;;;;;;5033786;28;20029;-80
2023/03/01 03:47:13;;;;;;;5.95;3.63;;;4.30;67.20;;;;;;5033618;28;20041;-80
2023/03/01 03:49:38;;;;;;;4.43;3.53;;;4.40;67.00;;;;;;5033084;28;20394;-80
2023/03/01 03:52:04;;;;;;;5.55;3.22;;;4.50;67.30;;;;;;5016085;28;20040;-80
2023/03/01 03:54:30;;;;;;;4.22;3.15;;;4.50;66.60;;;;;;5015752;28;20088;-80
2023/03/01 03:56:56;;;;;;;7.07;4.05;;;4.50;66.60;;;;;;5033333;28;20021;-81
2023/03/01 03:59:22;;;;;;;6.78;3.88;;;4.60;66.40;;;;;;5033203;28;20139;-81
2023/03/01 04:01:47;;;;;;;7.63;3.55;;;4.50;66.40;;;;;;5033333;28;20025;-81
2023/03/01 04:04:13;;;;;;;5.55;3.38;;;4.60;66.60;;;;;;5015648;28;20037;-81
2023/03/01 04:06:38;;;;;;;6.55;3.70;;;4.50;66.40;;;;;;5015747;28;20033;-81
2023/03/01 04:09:04;;;;;;;4.63;3.38;;;4.50;66.60;;;;;;4998532;28;20037;-81
2023/03/01 04:11:30;;;;;;;5.53;3.60;;;4.60;66.60;;;;;;5015443;28;20470;-81
2023/03/01 04:13:58;;;;;;;9.02;3.90;;;4.60;66.60;;;;;;5033258;28;20061;-81
2023/03/01 04:16:24;;;;;;;4.53;3.17;;;4.50;66.70;;;;;;5015386;28;20025;-81
2023/03/01 04:18:52;;;;;;;5.55;3.10;;;4.60;66.60;;;;;;5030601;28;20111;-81
2023/03/01 04:21:20;;;;;;;9.13;5.35;;;4.60;66.70;;;;;;5015750;28;20034;-81
2023/03/01 04:23:45;;;;;;;7.15;3.30;;;4.60;66.50;;;;;;5032935;28;20492;-81
2023/03/01 04:26:11;;;;;;;5.78;3.78;;;4.50;66.80;;;;;;5015110;28;20150;-81
2023/03/01 04:28:40;;;;;;;6.38;3.67;;;4.60;66.90;;;;;;5033038;28;20030;-81
2023/03/01 04:31:18;;;;;;;5.40;3.25;;;4.70;66.70;;;;;;5033071;28;20025;-81
2023/03/01 04:33:55;;;;;;;4.68;3.20;;;4.70;66.70;;;;;;5015302;28;20384;-78
2023/03/01 04:36:24;;;;;;;8.02;3.83;;;4.90;66.40;;;;;;5015402;28;20411;-81
2023/03/01 04:38:50;;;;;;;5.97;3.70;;;4.90;66.20;;;;;;5032711;28;20028;-81
2023/03/01 04:41:18;;;;;;;5.90;3.50;;;4.70;66.50;;;;;;4999193;28;20095;-81
2023/03/01 04:43:44;;;;;;;4.50;3.00;;;4.70;66.50;;;;;;5032769;28;20052;-81
2023/03/01 04:46:15;;;;;;;4.53;2.92;;;4.70;66.60;;;;;;5032956;28;20068;-81
2023/03/01 04:48:43;;;;;;;6.03;3.50;;;4.80;66.80;;;;;;5032879;28;20034;-81
2023/03/01 04:51:09;;;;;;;4.97;3.33;;;4.70;66.40;;;;;;5033110;28;20030;-81
2023/03/01 04:53:36;;;;;;;7.88;3.22;;;4.60;66.70;;;;;;5032836;28;20062;-81
2023/03/01 04:56:02;;;;;;;5.10;3.10;;;4.70;67.00;;;;;;5015196;28;20029;-81
2023/03/01 04:58:29;;;;;;;5.55;3.17;;;4.80;67.00;;;;;;4998927;28;20466;-81
2023/03/01 05:00:55;;;;;;;7.45;3.17;;;4.90;66.80;;;;;;5015049;28;20056;-81
2023/03/01 05:03:21;;;;;;;4.18;2.50;;;4.90;66.50;;;;;;5015070;28;20455;-81
2023/03/01 05:05:49;;;;;;;5.22;3.05;;;4.90;66.60;;;;;;5014907;28;20036;-81
2023/03/01 05:08:18;;;;;;;6.85;3.40;;;4.90;66.40;;;;;;5014767;28;20029;-81
2023/03/01 05:10:46;;;;;;;6.97;3.17;;;4.90;66.30;;;;;;4998943;28;20038;-81
2023/03/01 05:13:20;;;;;;;6.63;3.17;;;5.00;66.20;;;;;;5014735;28;20030;-81
2023/03/01 05:15:54;;;;;;;5.75;3.33;;;4.90;66.20;;;;;;5000040;28;20034;-81
2023/03/01 05:18:19;;;;;;;4.63;3.08;;;4.90;66.50;;;;;;5011455;28;20058;-81
2023/03/01 05:20:46;;;;;;;5.18;4.07;;;5.00;66.40;;;;;;5013153;28;20470;-81
2023/03/01 05:23:11;;;;;;;6.60;3.42;;;5.00;66.40;;;;;;5012828;28;20029;-81
2023/03/01 05:25:39;;;;;;;5.50;3.30;;;5.00;66.10;;;;;;5011524;28;20030;-81
2023/03/01 05:28:10;;;;;;;4.72;3.25;;;5.00;66.20;;;;;;5013052;28;20072;-82
2023/03/01 05:30:35;;;;;;;7.00;3.47;;;5.00;66.20;;;;;;5013109;28;20475;-81
2023/03/01 05:33:01;;;;;;;6.95;3.42;;;4.90;66.10;;;;;;4995515;28;20092;-81
2023/03/01 05:35:27;;;;;;;5.95;3.55;;;4.80;66.50;;;;;;5013076;28;20424;-81
2023/03/01 05:37:53;;;;;;;6.43;2.78;;;4.90;66.50;;;;;;5015371;28;20364;-81
2023/03/01 05:40:22;;;;;;;6.22;3.05;;;4.90;66.40;;;;;;5016304;28;20029;-81
2023/03/01 05:42:54;;;;;;;5.35;3.28;;;4.90;66.30;;;;;;5016578;28;20104;-81
2023/03/01 05:45:21;;;;;;;10.75;3.47;;;4.70;66.60;;;;;;5016415;28;20033;-81
2023/03/01 05:47:48;;;;;;;7.90;3.70;;;4.60;66.80;;;;;;5014996;28;20034;-81
2023/03/01 05:50:19;;;;;;;7.85;3.63;;;4.60;67.00;;;;;;5016278;28;20042;-81
2023/03/01 05:52:50;;;;;;;5.82;3.70;;;4.70;66.90;;;;;;5016738;28;20079;-81
2023/03/01 05:55:21;;;;;;;6.63;3.47;;;4.80;66.80;;;;;;5015494;28;20463;-81
2023/03/01 05:57:48;;;;;;;6.53;4.07;;;4.60;67.00;;;;;;5014935;28;20390;-80
2023/03/01 06:00:15;;;;;;;8.23;3.90;;;4.50;67.70;;;;;;5014430;28;20434;-81
2023/03/01 06:02:41;;;;;;;6.30;3.42;;;4.40;67.70;;;;;;4998481;28;20068;-81
2023/03/01 06:05:09;;;;;;;5.72;3.40;;;4.40;68.20;;;;;;5016113;28;20424;-81
2023/03/01 06:07:35;;;;;;;6.95;3.85;;;4.50;68.30;;;;;;5014338;28;20026;-80
2023/03/01 06:10:01;;;;;;;4.47;3.45;;;4.50;67.80;;;;;;5016041;28;20037;-79
2023/03/01 06:12:34;;;;;;;6.05;3.90;;;4.40;68.00;;;;;;5016031;28;20037;-81
2023/03/01 06:15:00;;;;;;;10.90;4.03;;;4.40;68.30;;;;;;5016000;28;20037;-81
2023/03/01 06:17:29;;;;;;;9.95;4.18;;;4.40;68.00;;;;;;5015385;28;20053;-77
2023/03/01 06:19:54;;;;;;;10.60;4.57;;;4.40;68.00;;;;;;5014649;28;20058;-77
2023/03/01 06:22:20;;;;;;;8.10;4.18;;;4.30;68.20;;;;;;5014078;28;20045;-82
2023/03/01 06:24:46;;;;;;;7.13;3.75;;;4.20;68.60;;;;;;5014791;28;20049;-81
2023/03/01 06:27:11;;;;;;;6.32;3.95;;;4.20;68.80;;;;;;5013682;28;20041;-81
2023/03/01 06:29:37;;;;;;;8.00;2.42;;;4.20;68.90;;;;;;5013987;28;20414;-79
2023/03/01 06:32:03;;;;;;;9.45;3.25;;;4.40;71.80;;;;;;5015935;28;20030;-79
2023/03/01 06:34:31;;;;;;;7.95;2.97;;;4.60;75.40;;;;;;5017025;28;20125;-83
2023/03/01 06:36:57;;;;;;;4.95;2.33;;;4.90;75.90;;;;;;5011837;28;20136;-83
2023/03/01 06:39:23;;;;;;;9.48;3.20;;;5.20;76.10;;;;;;5002522;28;20428;-79
2023/03/01 06:41:48;;;;;;;7.05;3.70;;;5.40;75.20;;;;;;4997494;28;20462;-79
2023/03/01 06:44:14;;;;;;;4.97;3.17;;;5.50;73.90;;;;;;5013105;28;20042;-79
2023/03/01 06:46:40;;;;;;;6.28;3.35;;;5.60;73.50;;;;;;5014913;28;20034;-79
2023/03/01 06:49:09;;;;;;;4.72;2.47;;;5.80;73.10;;;;;;5013046;28;20030;-79
2023/03/01 06:51:38;;;;;;;3.70;2.38;;;6.00;73.50;;;;;;5013193;28;20018;-80
2023/03/01 06:54:04;;;;;;;5.90;2.90;;;6.20;73.60;;;;;;4997186;28;20090;-80
2023/03/01 06:56:31;;;;;;;6.13;3.10;;;6.40;73.80;;;;;;5014414;28;20034;-80
2023/03/01 06:58:56;;;;;;;5.35;3.80;;;6.50;72.00;;;;;;5013960;28;20060;-77
2023/03/01 07:01:22;;;;;;;5.07;3.38;;;6.50;70.80;;;;;;4996850;28;20026;-80
2023/03/01 07:03:48;;;;;;;5.32;3.17;;;6.60;70.70;;;;;;4997314;28;20550;-79
2023/03/01 07:06:13;;;;;;;5.93;3.20;;;6.70;70.20;;;;;;5014994;28;20455;-82
2023/03/01 07:08:39;;;;;;;6.65;3.88;;;6.80;70.40;;;;;;5014614;28;20471;-81
2023/03/01 07:11:05;;;;;;;4.82;2.95;;;6.80;69.20;;;;;;5013606;28;20429;-82
2023/03/01 07:13:31;;;;;;;7.93;3.72;;;6.80;69.30;;;;;;5014531;28;20033;-81
2023/03/01 07:15:57;;;;;;;4.90;3.42;;;6.90;69.70;;;;;;5017568;28;20340;-81
2023/03/01 07:18:23;;;;;;;5.10;2.58;;;6.90;69.30;;;;;;5018474;28;20069;-81
2023/03/01 07:20:49;;;;;;;6.97;3.33;;;7.10;71.20;;;;;;5024249;28;20030;-82
2023/03/01 07:23:15;;;;;;;5.75;3.22;;;7.20;71.20;;;;;;5012185;28;20040;-81
2023/03/01 07:25:41;;;;;;;8.05;3.70;;;7.30;70.00;;;;;;5012728;28;20034;-81
2023/03/01 07:28:07;;;;;;;7.07;4.18;;;7.30;69.20;;;;;;4999905;28;20101;-80
2023/03/01 07:30:33;;;;;;;6.97;4.30;;;7.20;66.70;;;;;;5016016;28;20034;-82
2023/03/01 07:32:59;;;;;;;5.78;3.42;;;7.00;66.70;;;;;;4998469;28;20037;-81
2023/03/01 07:35:26;;;;;;;6.28;4.03;;;7.00;65.80;;;;;;5015746;28;20463;-80
2023/03/01 07:37:52;;;;;;;7.40;3.70;;;6.80;64.90;;;;;;5019290;28;20026;-80
2023/03/01 07:40:17;;;;;;;10.18;3.53;;;6.60;64.90;;;;;;5018804;28;20038;-81
2023/03/01 07:42:43;;;;;;;8.05;4.18;;;6.60;65.20;;;;;;5017157;28;20351;-82
2023/03/01 07:45:09;;;;;;;7.43;4.10;;;6.60;65.00;;;;;;5017917;28;20037;-80
2023/03/01 07:47:35;;;;;;;7.10;3.97;;;6.60;64.50;;;;;;5014555;28;20120;-80
2023/03/01 07:50:02;;;;;;;11.20;3.83;;;6.50;64.20;;;;;;5013820;28;20104;-80
2023/03/01 07:52:28;;;;;;;8.90;3.67;;;6.40;64.20;;;;;;5014086;28;20033;-80
2023/03/01 07:54:53;;;;;;;7.07;3.80;;;6.30;65.40;;;;;;5026259;28;20091;-82
2023/03/01 07:57:19;;;;;;;5.00;3.50;;;6.30;65.20;;;;;;5008504;28;20033;-78
2023/03/01 07:59:48;;;;;;;7.72;2.72;;;6.30;65.00;;;;;;5008729;28;20038;-80
2023/03/01 08:02:14;;;;;;;6.10;3.53;;;6.50;65.90;;;;;;5002710;28;20036;-80
2023/03/01 08:04:41;;;;;;;6.28;3.60;;;6.60;65.70;;;;;;4997724;28;20221;-79
2023/03/01 08:07:10;;;;;;;8.98;4.18;;;6.70;64.50;;;;;;4996998;28;20045;-78
2023/03/01 08:09:38;;;;;;;6.90;3.22;;;6.70;64.50;;;;;;4996225;28;20076;-79
2023/03/01 08:12:04;;;;;;;10.25;4.40;;;6.70;64.70;;;;;;5014222;28;20058;-78
2023/03/01 08:14:34;;;;;;;5.45;3.70;;;6.70;64.30;;;;;;5013854;28;20034;-79
2023/03/01 08:17:00;;;;;;;7.35;4.00;;;6.70;64.50;;;;;;4996080;28;20034;-79
2023/03/01 08:19:27;;;;;;;8.68;4.30;;;6.70;64.10;;;;;;4995630;28;20061;-79
2023/03/01 08:21:53;;;;;;;7.95;3.97;;;6.50;63.80;;;;;;4996081;28;20030;-78
2023/03/01 08:24:19;;;;;;;7.63;4.25;;;6.40;64.20;;;;;;5013648;28;20104;-79
2023/03/01 08:26:47;;;;;;;7.80;4.22;;;6.20;64.20;;;;;;4996013;28;20093;-79
2023/03/01 08:29:12;;;;;;;5.43;4.03;;;6.20;65.10;;;;;;5012199;28;20042;-79
2023/03/01 08:31:40;;;;;;;7.85;4.50;;;6.10;64.80;;;;;;4995640;28;20474;-79
2023/03/01 08:34:09;;;;;;;8.15;3.88;;;6.00;65.50;;;;;;5013307;28;20221;-79
2023/03/01 08:36:37;;;;;;;5.95;4.25;;;6.00;65.30;;;;;;5012367;28;20037;-78
2023/03/01 08:39:04;;;;;;;6.53;3.80;;;5.90;65.70;;;;;;5012303;28;20029;-79
2023/03/01 08:41:30;;;;;;;8.65;3.65;;;5.80;65.70;;;;;;5013870;28;20054;-79
2023/03/01 08:43:58;;;;;;;8.40;3.95;;;5.90;66.30;;;;;;5013932;28;20026;-79
2023/03/01 08:46:32;;;;;;;7.32;3.90;;;6.00;65.70;;;;;;5012281;28;20037;-79
2023/03/01 08:48:58;;;;;;;7.85;4.10;;;6.10;65.70;;;;;;5012323;28;20061;-79
2023/03/01 08:51:25;;;;;;;7.55;3.85;;;6.10;65.50;;;;;;5014363;28;20022;-79
2023/03/01 08:53:51;;;;;;;5.55;3.72;;;6.20;65.30;;;;;;5013498;28;20113;-79
2023/03/01 08:56:18;;;;;;;6.53;3.15;;;6.40;65.40;;;;;;5013922;28;20451;-79
2023/03/01 08:58:48;;;;;;;8.75;3.38;;;6.60;65.20;;;;;;4996492;28;20065;-79
2023/03/01 09:01:16;;;;;;;6.43;2.97;;;6.80;63.10;;;;;;5013711;28;20033;-78
2023/03/01 09:03:43;;;;;;;7.65;3.40;;;6.80;63.50;;;;;;5013439;28;20034;-79
2023/03/01 09:06:09;;;;;;;5.55;2.85;;;6.80;63.20;;;;;;5013342;28;20034;-79
2023/03/01 09:08:40;;;;;;;6.10;3.20;;;6.90;62.20;;;;;;5012905;28;20474;-79
2023/03/01 09:11:07;;;;;;;5.63;3.20;;;7.00;62.10;;;;;;5012240;28;20045;-79
2023/03/01 09:13:34;;;;;;;6.85;2.72;;;7.10;61.40;;;;;;5015845;28;20125;-79
2023/03/01 09:16:02;;;;;;;5.13;2.88;;;7.20;61.70;;;;;;5015396;28;20077;-79
2023/03/01 09:18:28;;;;;;;6.60;3.10;;;7.20;61.00;;;;;;4998900;28;20058;-79
2023/03/01 09:21:11;;;;;;;3.88;2.60;;;7.40;61.10;;;;;;4999099;28;20038;-82
2023/03/01 09:23:39;;;;;;;;;;;7.60;60.70;;;;;;5017145;28;20026;-79
2023/03/01 09:26:10;;;;;;;7.13;2.80;;;7.70;59.60;;;;;;5015506;28;19906;-79
2023/03/01 09:28:37;;;;;;;5.18;2.95;;;7.60;59.10;;;;;;5016402;28;20032;-79
2023/03/01 09:31:03;;;;;;;6.68;3.33;;;7.70;59.30;;;;;;4998795;28;20042;-79
2023/03/01 09:33:30;;;;;;;6.10;3.08;;;7.80;59.10;;;;;;5015250;28;20026;-79
2023/03/01 09:36:04;;;;;;;4.72;2.40;;;7.90;58.80;;;;;;5019928;28;20055;-80
2023/03/01 09:38:30;;;;;;;5.10;3.30;;;8.00;58.80;;;;;;5016683;28;20499;-80
2023/03/01 09:40:55;;;;;;;7.07;3.72;;;8.20;57.90;;;;;;5017823;28;20044;-80
2023/03/01 09:43:44;;;;;;;6.60;4.30;;;8.30;58.40;;;;;;4998597;28;20064;-80
2023/03/01 09:46:16;;;;;;;6.95;4.53;;;8.50;57.30;;;;;;5015900;28;20041;-80
2023/03/01 09:48:46;;;;;;;6.88;4.68;;;8.40;56.60;;;;;;5016304;28;20463;-80
2023/03/01 09:51:28;;;;;;;8.80;5.25;;;8.50;56.80;;;;;;5016408;28;20041;-80
2023/03/01 09:53:55;;;;;;;7.53;4.78;;;8.70;56.60;;;;;;5016746;28;20049;-81
2023/03/01 09:56:52;;;;;;;;;;;;;;;;;;;;;
2023/03/01 09:59:48;;;;;;;7.93;5.60;;;8.70;56.50;;;;;;5016407;28;20022;-80
2023/03/01 10:02:16;;;;;;;9.73;6.13;;;8.70;55.40;;;;;;5015500;28;20041;-81
2023/03/01 10:04:48;;;;;;;8.70;6.13;;;8.70;56.10;;;;;;5019476;28;20026;-81
2023/03/01 10:07:52;;;;;;;9.52;6.60;;;8.70;56.20;;;;;;5023607;28;20022;-81
2023/03/01 10:10:31;;;;;;;9.57;7.07;;;8.60;55.00;;;;;;5002232;28;20124;-80
2023/03/01 10:12:59;;;;;;;7.18;4.93;;;8.60;55.40;;;;;;5013952;28;20034;-80
2023/03/01 10:15:37;;;;;;;10.55;5.40;;;8.60;55.40;;;;;;5003819;28;20129;-82
2023/03/01 10:18:10;;;;;;;7.38;4.72;;;8.70;55.80;;;;;;5014718;28;20382;-81
2023/03/01 10:21:00;;;;;;;8.10;4.35;;;8.70;55.20;;;;;;5024572;28;20117;-82
2023/03/01 10:23:29;;;;;;;6.10;4.38;;;8.70;55.60;;;;;;5012829;28;20021;-81
2023/03/01 10:26:07;;;;;;;9.07;5.03;;;8.70;55.50;;;;;;5013051;28;20022;-82
2023/03/01 10:29:07;;;;;;;7.43;4.85;;;8.70;55.90;;;;;;5018968;28;20036;-82
2023/03/01 10:31:48;;;;;;;6.75;5.32;;;8.70;55.80;;;;;;5024450;28;20300;-78
2023/03/01 10:34:35;;;;;;;6.75;4.20;;;8.90;55.90;;;;;;5011265;28;20067;-76
2023/03/01 10:37:19;;;;;;;5.97;4.00;;;9.10;55.90;;;;;;5013381;28;20081;-77
2023/03/01 10:40:18;;;;;;;5.50;3.90;;;9.10;55.40;;;;;;5013427;28;20025;-79
2023/03/01 10:42:49;;;;;;;5.72;3.63;;;9.10;55.80;;;;;;5010195;28;20044;-81
2023/03/01 10:45:34;;;;;;;4.90;3.83;;;9.20;56.20;;;;;;5015675;28;20026;-80
2023/03/01 10:48:15;;;;;;;5.63;3.40;;;9.40;56.10;;;;;;5015846;28;20462;-80
2023/03/01 10:51:11;;;;;;;4.78;3.38;;;9.40;55.10;;;;;;5014142;28;20037;-79
2023/03/01 10:53:41;;;;;;;5.40;3.67;;;9.30;55.00;;;;;;5011082;28;20103;-81
2023/03/01 10:56:08;;;;;;;6.88;3.97;;;9.30;55.00;;;;;;5015293;28;20018;-81
2023/03/01 10:58:36;;;;;;;6.47;3.35;;;9.40;54.30;;;;;;5015809;28;20026;-82
2023/03/01 11:01:22;;;;;;;6.00;3.47;;;9.50;54.30;;;;;;5014799;28;20022;-81
2023/03/01 11:04:10;;;;;;;6.47;3.90;;;9.50;54.20;;;;;;5027860;28;20208;-82
2023/03/01 11:06:41;;;;;;;6.30;3.53;;;9.50;54.10;;;;;;5029897;28;20022;-82
2023/03/01 11:09:21;;;;;;;5.50;3.90;;;9.40;54.60;;;;;;5013897;28;20034;-82
2023/03/01 11:11:56;;;;;;;5.30;3.45;;;9.40;55.10;;;;;;5014612;28;20105;-83
2023/03/01 11:14:24;;;;;;;6.00;2.92;;;9.40;54.30;;;;;;5014910;28;20069;-82
2023/03/01 11:17:01;;;;;;;5.05;3.13;;;9.40;55.00;;;;;;5019224;28;20056;-81
2023/03/01 11:19:27;;;;;;;5.28;3.58;;;9.50;54.20;;;;;;5014686;28;20115;-82
2023/03/01 11:22:03;;;;;;;5.35;3.72;;;9.60;54.20;;;;;;5013713;28;20727;-80
2023/03/01 11:24:42;;;;;;;5.25;3.08;;;9.50;53.60;;;;;;5010986;28;20466;-81
2023/03/01 11:27:31;;;;;;;5.07;3.67;;;9.60;54.00;;;;;;5011956;28;20418;-83
2023/03/01 11:30:20;;;;;;;5.28;3.00;;;9.60;53.80;;;;;;4996506;28;20033;-83
2023/03/01 11:33:07;;;;;;;7.15;3.22;;;9.70;54.10;;;;;;5012832;28;20064;-83
2023/03/01 11:35:37;;;;;;;4.15;2.97;;;10.10;54.30;;;;;;5012768;28;20026;-85
2023/03/01 11:38:22;;;;;;;6.05;3.78;;;10.30;54.10;;;;;;5013990;28;20080;-83
2023/03/01 11:41:11;;;;;;;6.18;3.45;;;10.50;53.50;;;;;;5016275;28;20033;-84
2023/03/01 11:43:54;;;;;;;5.18;2.75;;;10.50;53.30;;;;;;5013879;28;20038;-83
2023/03/01 11:46:47;;;;;;;5.57;3.35;;;10.60;51.70;;;;;;4996473;28;20057;-84
2023/03/01 11:49:45;;;;;;;4.35;3.10;;;10.40;51.70;;;;;;4996610;28;20031;-84
2023/03/01 11:52:49;;;;;;;5.38;3.10;;;10.30;51.30;;;;;;4980004;28;20149;-84
2023/03/01 11:55:56;;;;;;;5.70;3.67;;;10.30;51.30;;;;;;4993635;28;20026;-84
2023/03/01 11:58:53;;;;;;;5.43;2.95;;;10.30;51.40;;;;;;4983056;28;20038;-84
2023/03/01 12:01:45;;;;;;;6.40;3.40;;;10.40;51.80;;;;;;5014931;28;20025;-83
2023/03/01 12:04:45;;;;;;;5.00;3.40;;;10.60;51.70;;;;;;5015365;28;20075;-84
2023/03/01 12:07:27;;;;;;;6.57;3.60;;;10.60;51.60;;;;;;5017288;28;20057;-81
2023/03/01 12:10:12;;;;;;;6.70;3.83;;;10.30;51.90;;;;;;5017258;28;20116;-80
2023/03/01 12:12:47;;;;;;;3.85;2.63;;;10.00;52.00;;;;;;5011024;28;21405;-78
2023/03/01 12:15:54;;;;;;;7.72;3.33;;;10.10;53.60;;;;;;5011789;28;20034;-77
2023/03/01 12:18:37;;;;;;;6.88;4.68;;;10.30;53.00;;;;;;5010396;28;20053;-76
2023/03/01 12:21:03;;;;;;;5.30;3.45;;;10.30;51.80;;;;;;5002377;28;20042;-77
2023/03/01 12:23:50;;;;;;;4.93;3.40;;;10.30;52.60;;;;;;5013801;28;20058;-77
2023/03/01 12:26:40;;;;;;;7.55;3.53;;;10.50;51.50;;;;;;5012483;28;20030;-78
2023/03/01 12:29:24;;;;;;;4.97;3.13;;;10.50;51.90;;;;;;5008839;28;20022;-78
2023/03/01 12:32:08;;;;;;;5.82;3.78;;;10.70;52.20;;;;;;5011409;28;20485;-80
2023/03/01 12:34:40;;;;;;;5.75;3.50;;;10.60;51.50;;;;;;5010054;28;20030;-77
2023/03/01 12:37:35;;;;;;;6.63;3.67;;;10.50;52.50;;;;;;5010498;28;20021;-79
2023/03/01 12:40:23;;;;;;;5.72;3.45;;;10.40;51.80;;;;;;4999562;28;20037;-78
2023/03/01 12:42:58;;;;;;;6.55;3.63;;;10.50;52.80;;;;;;5010688;28;20022;-78
2023/03/01 12:45:32;;;;;;;7.15;3.30;;;10.80;52.30;;;;;;5010876;28;20045;-77
2023/03/01 12:48:17;;;;;;;5.40;3.53;;;10.90;51.30;;;;;;5016494;28;20032;-79
2023/03/01 12:50:47;;;;;;;6.70;3.45;;;10.90;50.00;;;;;;5012635;28;20061;-78
2023/03/01 12:53:29;;;;;;;6.00;3.00;;;10.90;51.40;;;;;;5014763;28;20030;-79
2023/03/01 12:56:01;;;;;;;5.68;3.30;;;10.90;52.00;;;;;;5014285;28;20025;-77
2023/03/01 12:58:42;;;;;;;4.80;2.95;;;11.00;50.10;;;;;;5013622;28;20045;-81
2023/03/01 13:01:38;;;;;;;5.47;3.40;;;10.90;50.70;;;;;;5013992;28;20021;-80
2023/03/01 13:04:16;;;;;;;4.25;3.10;;;10.90;50.10;;;;;;5014002;28;20032;-77
2023/03/01 13:07:20;;;;;;;4.38;3.40;;;11.10;50.40;;;;;;5013821;28;20034;-80
2023/03/01 13:10:01;;;;;;;;;;;11.40;49.30;;;;;;5011742;28;20041;-80
2023/03/01 13:12:49;;;;;;;5.35;2.75;;;11.50;49.40;;;;;;5015516;28;19992;-78
2023/03/01 13:15:25;;;;;;;5.70;3.13;;;11.60;48.60;;;;;;5014946;28;20375;-78
2023/03/01 13:17:54;;;;;;;7.40;3.30;;;11.50;47.30;;;;;;5017816;28;20080;-79
2023/03/01 13:20:25;;;;;;;6.10;3.08;;;11.50;47.50;;;;;;5036304;28;20043;-79
2023/03/01 13:23:05;;;;;;;4.20;2.85;;;11.50;48.80;;;;;;5030288;28;20051;-80